Steptoe Valley WMA, Nevada Weather observations

Data are for 10 minute period ending at time listed.
 Day   Time   Solar   Ave.   Ave.  Ave.  Vector  Max.   Baro.   Total    
  of    of     Rad.   Air    Rel.  Wind   Wind   Wind  Press.  Precip.   
Year   Day            Temp.  Hum.  Speed  Dir.   Gust                    
2017   (PST)  Kw/m2    F      %     mph   deg.    mph    mb.     in.     
-------------------------------------------------------------------------
  18    9:00   0.31   20.9    52    3.7   151     6.4   801.8    0.00 
  18    9:10   0.34   20.8    54    5.2   130     7.0   801.8    0.00 
  18    9:20   0.28   23.5    50    4.1   150     6.3   801.9    0.00 
  18    9:30   0.29   23.7    50    2.9   172     4.5   801.8    0.00 
  18    9:40   0.28   24.3    51    2.1   224     4.7   801.9    0.00 
  18    9:50   0.11   18.6    62    4.9   171     7.3   801.8    0.00 
  18   10:00   0.34   19.5    65    4.7   183     7.2   801.8    0.00 
  18   10:10   0.45   23.4    60    5.0   159     9.1   801.7    0.00 
  18   10:20   0.48   27.1    54    5.2   170     7.5   801.5    0.00 
  18   10:30   0.24   27.5    53    5.6   181     7.5   801.4    0.00 
  18   10:40   0.18   24.6    61    4.0   214     7.4   801.5    0.00 
  18   10:50   0.34   25.2    59    3.6   182     5.8   801.5    0.00 
  18   11:00   0.42   28.9    50    2.7   190     4.2   801.2    0.00 
  18   11:10   0.44   32.2    48    2.7   184     3.9   800.9    0.00 
  18   11:20   0.45   34.1    48    1.9   173     3.3   800.7    0.00 
  18   11:30   0.34   34.5    47    1.4   256     2.3   800.3    0.00 
  18   11:40   0.57   35.1    47    2.1   221     5.3   800.0    0.00 
  18   11:50   0.49   35.5    43    3.0   191     4.3   799.7    0.00 
  18   12:00   0.54   36.5    46    3.2   190     5.0   799.5    0.00 
  18   12:10   0.55   40.2    38    2.7   204     4.1   799.0    0.00 
  18   12:20   0.41   41.0    36    2.6   202     3.5   798.6    0.00 
  18   12:30   0.34   38.4    41    2.3   178     4.3   798.2    0.00 
  18   12:40   0.40   38.1    46    3.4   187     4.9   798.1    0.00 
  18   12:50   0.38   38.0    49    2.7   176     4.2   798.1    0.00 
  18   13:00   0.40   40.1    45    2.0   168     2.8   798.0    0.00 
  18   13:10   0.41   42.5    39    1.6   168     3.0   797.8    0.00 
  18   13:20   0.37   41.4    43    3.7   157     8.8   797.6    0.00 
  18   13:30   0.35   39.1    47    8.0   149    11.4   797.6    0.00 
  18   13:40   0.33   38.2    48    8.1   162    12.5   797.5    0.00 
  18   13:50   0.30   37.6    51   10.8   158    16.1   797.1    0.00 
  18   14:00   0.28   36.9    50   13.3   165    18.2   796.8    0.00 
  18   14:10   0.24   36.6    52   10.1   169    14.3   797.0    0.00 
  18   14:20   0.22   36.1    54   11.9   159    16.0   797.0    0.00 
  18   14:30   0.20   35.8    54   10.7   157    14.9   797.0    0.00 
  18   14:40   0.19   35.6    54    9.4   159    13.4   797.1    0.00 
  18   14:50   0.17   35.7    52    8.5   168    12.9   797.4    0.00 
  18   15:00   0.18   36.1    52    4.7   174     8.7   797.7    0.00 
  18   15:10   0.17   36.4    51    6.8   145    12.3   797.6    0.00 
  18   15:20   0.10   35.9    53    9.8   144    13.5   797.4    0.00 
  18   15:30   0.09   35.7    54    9.6   144    14.5   797.4    0.00 
  18   15:40   0.08   35.3    56   11.5   147    16.9   797.3    0.00 
  18   15:50   0.05   34.6    58   13.0   166    18.3   797.4    0.00 
  18   16:00   0.04   34.5    55   13.4   159    18.9   797.4    0.00 
  18   16:10   0.04   34.8    54   10.1   169    15.1   797.5    0.00 
  18   16:20   0.02   33.5    61    5.7   172     8.3   797.5    0.00 
  18   16:30   0.01   33.3    61    5.4   180     8.1   797.4    0.00 
  18   16:40   0.01   33.6    60    7.9   169    14.0   797.2    0.00 
  18   16:50   0.00   32.5    62    7.6   187    10.7   797.3    0.00 
  18   17:00   0.00   32.0    63    8.0   196    10.4   797.1    0.00 
  18   17:10   0.00   31.9    64    6.1   188     9.2   797.1    0.00 
  18   17:20   0.00   31.8    65    6.3   171    12.4   797.2    0.00 
  18   17:30   0.00   32.7    60    9.7   164    13.1   797.2    0.00 
  18   17:40   0.00   32.6    60   10.7   164    17.1   797.2    0.00 
  18   17:50   0.00   33.2    58   14.4   158    21.5   797.1    0.00 
  18   18:00   0.00   33.1    58   15.1   154    21.3   797.0    0.00 
  18   18:10   0.00   32.8    59   14.7   151    20.5   796.9    0.00 
  18   18:20   0.00   33.0    57   15.8   149    23.0   796.9    0.00 
  18   18:30   0.00   33.1    56   15.0   145    21.6   796.9    0.00 
  18   18:40   0.00   32.6    58   13.9   142    20.0   797.1    0.00 
  18   18:50   0.00   32.4    59   13.2   141    19.5   797.1    0.00 
  18   19:00   0.00   32.2    59   10.7   142    17.2   797.1    0.00 
  18   19:10   0.00   33.0    54   11.1   138    17.1   796.9    0.00 
  18   19:20   0.00   33.5    53   11.8   147    16.1   796.8    0.00 
  18   19:30   0.00   33.4    54   12.5   142    19.9   796.6    0.00 
  18   19:40   0.00   32.9    55   13.4   139    18.5   796.3    0.00 
  18   19:50   0.00   32.6    56   13.4   144    18.6   796.2    0.00 
  18   20:00   0.00   32.0    59   15.7   146    22.6   796.1    0.00 
  18   20:10   0.00   31.9    60   15.9   146    21.7   796.0    0.00 
  18   20:20   0.00   31.6    61   15.5   149    22.8   796.0    0.00 
  18   20:30   0.00   31.5    61   16.2   152    22.6   795.9    0.00 
  18   20:40   0.00   31.2    62   14.4   143    20.2   795.8    0.00 
  18   20:50   0.00   31.1    63   14.2   150    19.5   795.7    0.00 
  18   21:00   0.00   31.1    62   15.7   151    22.5   795.9    0.00 
  18   21:10   0.00   31.2    62   16.4   151    25.1   795.9    0.00 
  18   21:20   0.00   30.9    63   14.6   138    19.8   795.8    0.00 
  18   21:30   0.00   30.9    63   15.8   145    22.1   795.8    0.00 
  18   21:40   0.00   30.8    64   15.6   153    23.5   796.0    0.00 
  18   21:50   0.00   30.5    68   16.6   162    24.0   796.2    0.00 
  18   22:00   0.00   29.5    73   15.5   156    24.3   796.5    0.00 
  18   22:10   0.00   28.0    81   17.5   156    26.7   796.6    0.00 
  18   22:20   0.00   27.4    86   15.1   154    22.1   796.8    0.00 
  18   22:30   0.00   27.0    88   12.4   149    17.4   796.9    0.00 
  18   22:40   0.00   26.8    90   11.4   144    16.7   796.8    0.00 
  18   22:50   0.00   26.8    90   10.5   138    14.4   796.6    0.00 
  18   23:00   0.00   26.8    90   10.8   139    14.5   796.3    0.00 
  18   23:10   0.00   26.9    90   11.7   142    15.3   796.0    0.00 
  18   23:20   0.00   27.2    88   11.6   142    16.1   795.9    0.00 
  18   23:30   0.00   27.3    88   12.2   144    17.5   795.8    0.00 
  18   23:40   0.00   27.3    88   11.9   147    16.5   795.7    0.00 
  18   23:50   0.00   27.2    88   12.5   145    18.6   795.5    0.00 
  19    0:00   0.00   27.3    87   12.8   146    18.5   795.4    0.00 
  19    0:10   0.00   27.4    86   13.1   146    19.5   795.2    0.00 
  19    0:20   0.00   27.5    85   12.0   143    19.1   795.1    0.00 
  19    0:30   0.00   27.7    85   12.1   145    18.6   795.0    0.00 
  19    0:40   0.00   27.6    86   11.1   140    18.7   794.6    0.00 
  19    0:50   0.00   28.0    85   13.7   148    18.7   794.4    0.00 
  19    1:00   0.00   28.0    85   13.3   144    20.1   794.9    0.00 
  19    1:10   0.00   28.0    85   12.6   143    17.0   794.7    0.00 
  19    1:20   0.00   28.1    85   14.7   141    22.1   794.3    0.00 
  19    1:30   0.00   28.2    84   15.3   145    21.9   794.1    0.00 
  19    1:40   0.00   28.5    82   13.3   150    19.1   794.7    0.00 
  19    1:50   0.00   28.4    83   11.8   148    17.8   794.8    0.00 
  19    2:00   0.00   28.2    84   13.4   146    19.2   794.6    0.00 
  19    2:10   0.00   28.0    84   14.1   140    20.9   794.4    0.00 
  19    2:20   0.00   27.8    85   13.7   142    21.4   794.3    0.00 
  19    2:30   0.00   27.5    87   13.4   144    18.6   794.4    0.00 
  19    2:40   0.00   27.4    87   12.4   144    18.6   794.2    0.00 
  19    2:50   0.00   27.6    86   12.5   145    20.9   794.1    0.00 
  19    3:00   0.00   27.7    86   11.8   148    16.4   794.0    0.00 
  19    3:10   0.00   27.8    86   11.3   148    17.4   794.0    0.00 
  19    3:20   0.00   27.9    85   11.5   149    16.1   793.8    0.00 
  19    3:30   0.00   27.8    86    9.4   146    14.4   793.7    0.00 
  19    3:40   0.00   27.9    86    9.3   151    13.4   793.6    0.00 
  19    3:50   0.00   28.0    87    9.9   157    13.8   793.5    0.00 
  19    4:00   0.00   28.3    86   11.4   150    17.0   793.6    0.00 
  19    4:10   0.00   28.2    86   10.3   148    14.9   793.6    0.00 
  19    4:20   0.00   28.0    87   10.3   147    17.5   793.6    0.00 
  19    4:30   0.00   28.0    88   11.2   142    16.3   793.4    0.00 
  19    4:40   0.00   28.2    85   10.8   137    16.1   793.4    0.00 
  19    4:50   0.00   28.4    84    9.2   140    14.0   793.4    0.00 
  19    5:00   0.00   28.4    83    9.7   149    15.1   793.5    0.00 
  19    5:10   0.00   28.2    84    9.0   153    13.1   793.6    0.00 
  19    5:20   0.00   28.0    85   12.0   144    18.1   793.5    0.00 
  19    5:30   0.00   27.7    86   12.3   146    16.5   793.6    0.00 
  19    5:40   0.00   27.5    88   10.5   141    14.7   793.7    0.00 
  19    5:50   0.00   27.1    90    8.8   143    14.0   793.8    0.00 
  19    6:00   0.00   27.1    91    7.0   139     9.7   793.8    0.00 
  19    6:10   0.00   27.1    91    7.0   140     9.9   793.8    0.00 
  19    6:20   0.00   27.2    90    8.9   144    14.1   793.8    0.00 
  19    6:30   0.00   27.3    89    9.3   142    13.2   793.7    0.00 
  19    6:40   0.00   27.5    88    6.8   139    10.1   793.6    0.00 
  19    6:50   0.00   27.8    87    9.4   153    13.7   793.7    0.00 
  19    7:00   0.00   27.8    87   11.6   160    17.4   793.7    0.00 
  19    7:10   0.00   27.4    89   11.4   157    16.5   793.8    0.00 
  19    7:20   0.00   27.3    90    8.9   159    13.3   793.9    0.00 
  19    7:30   0.00   27.2    91    8.5   150    13.4   793.8    0.00 
  19    7:40   0.01   27.3    91    7.8   150    12.5   793.7    0.00 
  19    7:50   0.04   27.5    91    5.3   145    11.5   793.7    0.00 
  19    8:00   0.06   27.7    90    7.0   148    10.4   793.8    0.00 
  19    8:10   0.06   28.0    88    8.1   159    12.4   794.0    0.00 
  19    8:20   0.08   28.4    87    7.2   155     9.5   794.0    0.00 
  19    8:30   0.10   28.6    86    6.0   152     9.0   794.1    0.00 
  19    8:40   0.09   28.6    87    4.7   149     7.5   794.1    0.00 
  19    8:50   0.08   28.6    88    4.1   150     7.5   794.2    0.00 

Return to Steptoe Valley WMA graphs page.


Western Regional Climate Center,wrcc@dri.edu